sensor_id;sensor_type;location;lat;lon;timestamp;P1;durP1;ratioP1;P2;durP2;ratioP2
8881;SDS011;4477;48.736;9.176;2022-10-19T00:00:20;53.73;;;30.33;;
8881;SDS011;4477;48.736;9.176;2022-10-19T00:02:47;111.53;;;42.47;;
8881;SDS011;4477;48.736;9.176;2022-10-19T00:05:14;86.07;;;39.83;;
8881;SDS011;4477;48.736;9.176;2022-10-19T00:07:41;66.30;;;35.90;;
8881;SDS011;4477;48.736;9.176;2022-10-19T00:10:08;81.73;;;39.60;;
8881;SDS011;4477;48.736;9.176;2022-10-19T00:12:35;86.83;;;41.00;;
8881;SDS011;4477;48.736;9.176;2022-10-19T00:15:04;122.40;;;45.07;;
8881;SDS011;4477;48.736;9.176;2022-10-19T00:17:32;93.83;;;40.50;;
8881;SDS011;4477;48.736;9.176;2022-10-19T00:19:59;86.53;;;41.23;;
8881;SDS011;4477;48.736;9.176;2022-10-19T00:22:26;102.70;;;42.10;;
8881;SDS011;4477;48.736;9.176;2022-10-19T00:24:54;85.10;;;40.63;;
8881;SDS011;4477;48.736;9.176;2022-10-19T00:27:21;71.90;;;35.97;;
8881;SDS011;4477;48.736;9.176;2022-10-19T00:29:48;97.87;;;42.53;;
8881;SDS011;4477;48.736;9.176;2022-10-19T00:32:16;89.00;;;40.60;;
8881;SDS011;4477;48.736;9.176;2022-10-19T00:34:43;106.30;;;46.17;;
8881;SDS011;4477;48.736;9.176;2022-10-19T00:37:10;111.93;;;47.60;;
8881;SDS011;4477;48.736;9.176;2022-10-19T00:39:37;115.10;;;46.57;;
8881;SDS011;4477;48.736;9.176;2022-10-19T00:42:04;133.40;;;51.10;;
8881;SDS011;4477;48.736;9.176;2022-10-19T00:47:28;130.07;;;48.63;;
8881;SDS011;4477;48.736;9.176;2022-10-19T00:49:56;115.57;;;43.37;;
8881;SDS011;4477;48.736;9.176;2022-10-19T00:52:25;124.07;;;48.33;;
8881;SDS011;4477;48.736;9.176;2022-10-19T00:54:53;141.30;;;48.03;;
8881;SDS011;4477;48.736;9.176;2022-10-19T00:57:21;150.50;;;49.27;;
8881;SDS011;4477;48.736;9.176;2022-10-19T00:59:49;125.43;;;44.30;;
8881;SDS011;4477;48.736;9.176;2022-10-19T01:02:17;135.10;;;46.40;;
8881;SDS011;4477;48.736;9.176;2022-10-19T01:04:46;130.17;;;44.73;;
8881;SDS011;4477;48.736;9.176;2022-10-19T01:07:15;111.30;;;41.60;;
8881;SDS011;4477;48.736;9.176;2022-10-19T01:09:43;162.70;;;49.17;;
8881;SDS011;4477;48.736;9.176;2022-10-19T01:12:13;146.33;;;48.60;;
8881;SDS011;4477;48.736;9.176;2022-10-19T01:14:54;122.87;;;44.53;;
8881;SDS011;4477;48.736;9.176;2022-10-19T01:17:31;162.70;;;49.27;;
8881;SDS011;4477;48.736;9.176;2022-10-19T01:26:21;158.17;;;49.00;;
8881;SDS011;4477;48.736;9.176;2022-10-19T01:29:13;138.10;;;48.67;;
8881;SDS011;4477;48.736;9.176;2022-10-19T01:31:45;74.87;;;34.73;;
8881;SDS011;4477;48.736;9.176;2022-10-19T01:34:16;141.17;;;47.87;;
8881;SDS011;4477;48.736;9.176;2022-10-19T01:36:51;119.53;;;40.40;;
8881;SDS011;4477;48.736;9.176;2022-10-19T01:39:24;256.43;;;51.67;;
8881;SDS011;4477;48.736;9.176;2022-10-19T01:41:58;617.23;;;72.70;;
8881;SDS011;4477;48.736;9.176;2022-10-19T01:44:31;435.83;;;57.07;;
8881;SDS011;4477;48.736;9.176;2022-10-19T01:47:07;575.53;;;66.07;;
8881;SDS011;4477;48.736;9.176;2022-10-19T01:49:40;385.20;;;58.00;;
8881;SDS011;4477;48.736;9.176;2022-10-19T01:52:11;463.63;;;62.57;;
8881;SDS011;4477;48.736;9.176;2022-10-19T01:54:42;628.13;;;74.83;;
8881;SDS011;4477;48.736;9.176;2022-10-19T01:57:11;291.43;;;49.83;;
8881;SDS011;4477;48.736;9.176;2022-10-19T01:59:42;274.50;;;44.47;;
8881;SDS011;4477;48.736;9.176;2022-10-19T02:02:11;509.90;;;61.40;;
8881;SDS011;4477;48.736;9.176;2022-10-19T02:04:40;416.00;;;53.53;;
8881;SDS011;4477;48.736;9.176;2022-10-19T02:07:08;518.67;;;63.77;;
8881;SDS011;4477;48.736;9.176;2022-10-19T02:09:36;575.10;;;61.10;;
8881;SDS011;4477;48.736;9.176;2022-10-19T02:12:05;244.90;;;45.87;;
8881;SDS011;4477;48.736;9.176;2022-10-19T02:14:36;373.27;;;48.90;;
8881;SDS011;4477;48.736;9.176;2022-10-19T02:17:06;539.73;;;57.03;;
8881;SDS011;4477;48.736;9.176;2022-10-19T02:19:36;471.07;;;55.17;;
8881;SDS011;4477;48.736;9.176;2022-10-19T02:22:03;489.83;;;59.43;;
8881;SDS011;4477;48.736;9.176;2022-10-19T02:24:30;456.33;;;55.63;;
8881;SDS011;4477;48.736;9.176;2022-10-19T02:26:57;527.03;;;60.73;;
8881;SDS011;4477;48.736;9.176;2022-10-19T02:29:25;667.77;;;69.40;;
8881;SDS011;4477;48.736;9.176;2022-10-19T02:31:53;560.90;;;63.80;;
8881;SDS011;4477;48.736;9.176;2022-10-19T02:34:20;490.07;;;56.27;;
8881;SDS011;4477;48.736;9.176;2022-10-19T02:36:49;489.43;;;58.60;;
8881;SDS011;4477;48.736;9.176;2022-10-19T02:39:16;435.07;;;56.27;;
8881;SDS011;4477;48.736;9.176;2022-10-19T02:41:43;550.80;;;61.80;;
8881;SDS011;4477;48.736;9.176;2022-10-19T02:44:17;320.53;;;52.83;;
8881;SDS011;4477;48.736;9.176;2022-10-19T02:46:48;405.20;;;58.07;;
8881;SDS011;4477;48.736;9.176;2022-10-19T02:49:19;537.47;;;64.23;;
8881;SDS011;4477;48.736;9.176;2022-10-19T02:51:58;530.57;;;61.50;;
8881;SDS011;4477;48.736;9.176;2022-10-19T02:54:26;615.73;;;68.37;;
8881;SDS011;4477;48.736;9.176;2022-10-19T02:56:54;595.33;;;63.47;;
8881;SDS011;4477;48.736;9.176;2022-10-19T02:59:21;264.90;;;39.33;;
8881;SDS011;4477;48.736;9.176;2022-10-19T03:01:48;189.73;;;38.80;;
8881;SDS011;4477;48.736;9.176;2022-10-19T03:04:15;476.93;;;56.73;;
8881;SDS011;4477;48.736;9.176;2022-10-19T03:06:42;358.73;;;44.77;;
8881;SDS011;4477;48.736;9.176;2022-10-19T03:09:10;442.37;;;52.00;;
8881;SDS011;4477;48.736;9.176;2022-10-19T03:11:37;462.23;;;55.77;;
8881;SDS011;4477;48.736;9.176;2022-10-19T03:14:03;416.63;;;50.33;;
8881;SDS011;4477;48.736;9.176;2022-10-19T03:16:30;340.47;;;46.80;;
8881;SDS011;4477;48.736;9.176;2022-10-19T03:18:57;343.07;;;46.40;;
8881;SDS011;4477;48.736;9.176;2022-10-19T03:21:24;284.83;;;43.90;;
8881;SDS011;4477;48.736;9.176;2022-10-19T03:23:51;473.13;;;57.67;;
8881;SDS011;4477;48.736;9.176;2022-10-19T03:26:19;290.67;;;48.00;;
8881;SDS011;4477;48.736;9.176;2022-10-19T03:28:46;438.70;;;59.73;;
8881;SDS011;4477;48.736;9.176;2022-10-19T03:31:13;285.30;;;46.33;;
8881;SDS011;4477;48.736;9.176;2022-10-19T03:33:40;424.77;;;53.63;;
8881;SDS011;4477;48.736;9.176;2022-10-19T03:36:14;376.17;;;55.07;;
8881;SDS011;4477;48.736;9.176;2022-10-19T03:38:42;413.23;;;59.10;;
8881;SDS011;4477;48.736;9.176;2022-10-19T03:41:09;409.67;;;55.30;;
8881;SDS011;4477;48.736;9.176;2022-10-19T03:43:38;216.13;;;44.37;;
8881;SDS011;4477;48.736;9.176;2022-10-19T03:46:06;311.73;;;51.43;;
8881;SDS011;4477;48.736;9.176;2022-10-19T03:48:33;257.60;;;48.73;;
8881;SDS011;4477;48.736;9.176;2022-10-19T03:51:00;258.00;;;46.03;;
8881;SDS011;4477;48.736;9.176;2022-10-19T03:53:29;518.30;;;65.23;;
8881;SDS011;4477;48.736;9.176;2022-10-19T03:55:59;340.17;;;53.47;;
8881;SDS011;4477;48.736;9.176;2022-10-19T03:58:27;385.00;;;56.43;;
8881;SDS011;4477;48.736;9.176;2022-10-19T04:00:56;746.40;;;85.67;;
8881;SDS011;4477;48.736;9.176;2022-10-19T04:03:22;362.30;;;59.57;;
8881;SDS011;4477;48.736;9.176;2022-10-19T04:05:49;352.70;;;63.47;;
8881;SDS011;4477;48.736;9.176;2022-10-19T04:08:16;200.93;;;50.60;;
8881;SDS011;4477;48.736;9.176;2022-10-19T04:10:43;357.90;;;68.50;;
8881;SDS011;4477;48.736;9.176;2022-10-19T04:13:10;434.33;;;75.93;;
8881;SDS011;4477;48.736;9.176;2022-10-19T04:15:37;203.87;;;55.53;;
8881;SDS011;4477;48.736;9.176;2022-10-19T04:18:05;198.97;;;58.30;;
8881;SDS011;4477;48.736;9.176;2022-10-19T04:20:32;161.13;;;54.53;;
8881;SDS011;4477;48.736;9.176;2022-10-19T04:22:58;257.27;;;64.27;;
8881;SDS011;4477;48.736;9.176;2022-10-19T04:25:25;135.47;;;52.57;;
8881;SDS011;4477;48.736;9.176;2022-10-19T04:27:52;137.47;;;53.23;;
8881;SDS011;4477;48.736;9.176;2022-10-19T04:30:19;149.40;;;55.50;;
8881;SDS011;4477;48.736;9.176;2022-10-19T04:32:46;156.17;;;55.63;;
8881;SDS011;4477;48.736;9.176;2022-10-19T04:35:14;225.40;;;66.00;;
8881;SDS011;4477;48.736;9.176;2022-10-19T04:37:41;216.07;;;65.83;;
8881;SDS011;4477;48.736;9.176;2022-10-19T04:40:08;225.07;;;64.83;;
8881;SDS011;4477;48.736;9.176;2022-10-19T04:42:36;139.83;;;53.53;;
8881;SDS011;4477;48.736;9.176;2022-10-19T04:45:03;133.93;;;54.63;;
8881;SDS011;4477;48.736;9.176;2022-10-19T04:47:30;149.83;;;53.77;;
8881;SDS011;4477;48.736;9.176;2022-10-19T04:49:57;196.37;;;56.30;;
8881;SDS011;4477;48.736;9.176;2022-10-19T04:52:25;137.43;;;53.47;;
8881;SDS011;4477;48.736;9.176;2022-10-19T04:54:52;155.80;;;52.70;;
8881;SDS011;4477;48.736;9.176;2022-10-19T04:57:21;111.20;;;46.67;;
8881;SDS011;4477;48.736;9.176;2022-10-19T04:59:47;341.57;;;68.87;;
8881;SDS011;4477;48.736;9.176;2022-10-19T05:02:14;147.53;;;53.47;;
8881;SDS011;4477;48.736;9.176;2022-10-19T05:04:41;139.20;;;51.93;;
8881;SDS011;4477;48.736;9.176;2022-10-19T05:07:08;208.10;;;58.47;;
8881;SDS011;4477;48.736;9.176;2022-10-19T05:09:36;157.37;;;55.67;;
8881;SDS011;4477;48.736;9.176;2022-10-19T05:12:04;119.33;;;51.87;;
8881;SDS011;4477;48.736;9.176;2022-10-19T05:14:31;151.60;;;58.67;;
8881;SDS011;4477;48.736;9.176;2022-10-19T05:16:58;153.93;;;56.57;;
8881;SDS011;4477;48.736;9.176;2022-10-19T05:19:25;123.43;;;51.67;;
8881;SDS011;4477;48.736;9.176;2022-10-19T05:21:52;129.93;;;50.83;;
8881;SDS011;4477;48.736;9.176;2022-10-19T05:24:19;381.53;;;65.73;;
8881;SDS011;4477;48.736;9.176;2022-10-19T05:26:47;297.00;;;59.17;;
8881;SDS011;4477;48.736;9.176;2022-10-19T05:29:14;352.17;;;63.20;;
8881;SDS011;4477;48.736;9.176;2022-10-19T05:31:41;303.73;;;59.67;;
8881;SDS011;4477;48.736;9.176;2022-10-19T05:34:07;511.50;;;76.80;;
8881;SDS011;4477;48.736;9.176;2022-10-19T05:36:35;406.73;;;68.73;;
8881;SDS011;4477;48.736;9.176;2022-10-19T05:39:03;392.87;;;67.80;;
8881;SDS011;4477;48.736;9.176;2022-10-19T05:41:31;276.40;;;58.33;;
8881;SDS011;4477;48.736;9.176;2022-10-19T05:44:00;346.73;;;61.60;;
8881;SDS011;4477;48.736;9.176;2022-10-19T05:46:28;262.07;;;56.77;;
8881;SDS011;4477;48.736;9.176;2022-10-19T05:48:56;395.73;;;67.73;;
8881;SDS011;4477;48.736;9.176;2022-10-19T05:51:24;513.00;;;75.43;;
8881;SDS011;4477;48.736;9.176;2022-10-19T05:53:52;293.27;;;58.43;;
8881;SDS011;4477;48.736;9.176;2022-10-19T05:56:20;278.90;;;59.50;;
8881;SDS011;4477;48.736;9.176;2022-10-19T05:58:48;288.30;;;61.10;;
8881;SDS011;4477;48.736;9.176;2022-10-19T06:01:17;177.77;;;53.40;;
8881;SDS011;4477;48.736;9.176;2022-10-19T06:03:44;145.47;;;48.23;;
8881;SDS011;4477;48.736;9.176;2022-10-19T06:06:12;149.53;;;48.73;;
8881;SDS011;4477;48.736;9.176;2022-10-19T06:08:39;218.17;;;57.10;;
8881;SDS011;4477;48.736;9.176;2022-10-19T06:11:06;145.77;;;47.73;;
8881;SDS011;4477;48.736;9.176;2022-10-19T06:13:35;201.27;;;54.93;;
8881;SDS011;4477;48.736;9.176;2022-10-19T06:16:02;273.93;;;59.77;;
8881;SDS011;4477;48.736;9.176;2022-10-19T06:18:31;139.53;;;47.47;;
8881;SDS011;4477;48.736;9.176;2022-10-19T06:21:00;131.13;;;48.00;;
8881;SDS011;4477;48.736;9.176;2022-10-19T06:23:28;127.40;;;46.33;;
8881;SDS011;4477;48.736;9.176;2022-10-19T06:25:54;140.10;;;49.73;;
8881;SDS011;4477;48.736;9.176;2022-10-19T06:28:21;89.37;;;41.80;;
8881;SDS011;4477;48.736;9.176;2022-10-19T06:30:48;219.00;;;51.40;;
8881;SDS011;4477;48.736;9.176;2022-10-19T06:33:15;76.37;;;40.67;;
8881;SDS011;4477;48.736;9.176;2022-10-19T06:35:43;103.60;;;42.87;;
8881;SDS011;4477;48.736;9.176;2022-10-19T06:38:10;95.73;;;41.60;;
8881;SDS011;4477;48.736;9.176;2022-10-19T06:40:38;78.17;;;38.07;;
8881;SDS011;4477;48.736;9.176;2022-10-19T06:43:05;110.53;;;43.53;;
8881;SDS011;4477;48.736;9.176;2022-10-19T06:45:31;94.93;;;42.37;;
8881;SDS011;4477;48.736;9.176;2022-10-19T06:47:58;71.47;;;38.53;;
8881;SDS011;4477;48.736;9.176;2022-10-19T06:50:25;71.13;;;37.30;;
8881;SDS011;4477;48.736;9.176;2022-10-19T06:52:53;66.30;;;37.30;;
8881;SDS011;4477;48.736;9.176;2022-10-19T06:55:20;67.27;;;36.40;;
8881;SDS011;4477;48.736;9.176;2022-10-19T06:57:47;66.10;;;34.53;;
8881;SDS011;4477;48.736;9.176;2022-10-19T07:00:14;54.70;;;32.77;;
8881;SDS011;4477;48.736;9.176;2022-10-19T07:02:41;67.90;;;35.97;;
8881;SDS011;4477;48.736;9.176;2022-10-19T07:05:08;54.57;;;34.23;;
8881;SDS011;4477;48.736;9.176;2022-10-19T07:07:35;63.40;;;35.13;;
8881;SDS011;4477;48.736;9.176;2022-10-19T07:10:04;53.83;;;33.10;;
8881;SDS011;4477;48.736;9.176;2022-10-19T07:12:31;48.67;;;31.63;;
8881;SDS011;4477;48.736;9.176;2022-10-19T07:14:58;48.67;;;29.87;;
8881;SDS011;4477;48.736;9.176;2022-10-19T07:17:25;44.57;;;30.07;;
8881;SDS011;4477;48.736;9.176;2022-10-19T07:19:51;43.17;;;29.70;;
8881;SDS011;4477;48.736;9.176;2022-10-19T07:22:19;48.10;;;29.27;;
8881;SDS011;4477;48.736;9.176;2022-10-19T07:24:45;42.50;;;28.93;;
8881;SDS011;4477;48.736;9.176;2022-10-19T07:27:14;41.07;;;29.07;;
8881;SDS011;4477;48.736;9.176;2022-10-19T07:29:40;42.40;;;27.77;;
8881;SDS011;4477;48.736;9.176;2022-10-19T07:32:07;40.57;;;27.93;;
8881;SDS011;4477;48.736;9.176;2022-10-19T07:34:34;38.17;;;27.67;;
8881;SDS011;4477;48.736;9.176;2022-10-19T07:37:01;35.40;;;27.17;;
8881;SDS011;4477;48.736;9.176;2022-10-19T07:39:28;40.20;;;27.07;;
8881;SDS011;4477;48.736;9.176;2022-10-19T07:41:55;33.50;;;25.53;;
8881;SDS011;4477;48.736;9.176;2022-10-19T07:44:23;32.67;;;24.63;;
8881;SDS011;4477;48.736;9.176;2022-10-19T07:46:50;31.47;;;24.80;;
8881;SDS011;4477;48.736;9.176;2022-10-19T07:49:17;36.93;;;25.93;;
8881;SDS011;4477;48.736;9.176;2022-10-19T07:51:45;35.33;;;25.03;;
8881;SDS011;4477;48.736;9.176;2022-10-19T07:54:11;30.93;;;24.17;;
8881;SDS011;4477;48.736;9.176;2022-10-19T07:56:38;30.27;;;23.93;;
8881;SDS011;4477;48.736;9.176;2022-10-19T07:59:05;28.37;;;22.57;;
8881;SDS011;4477;48.736;9.176;2022-10-19T08:01:36;29.20;;;23.07;;
8881;SDS011;4477;48.736;9.176;2022-10-19T08:04:06;31.67;;;23.83;;
8881;SDS011;4477;48.736;9.176;2022-10-19T08:06:32;27.90;;;23.53;;
8881;SDS011;4477;48.736;9.176;2022-10-19T08:09:00;28.30;;;23.17;;
8881;SDS011;4477;48.736;9.176;2022-10-19T08:11:29;26.77;;;22.13;;
8881;SDS011;4477;48.736;9.176;2022-10-19T08:13:57;27.87;;;21.27;;
8881;SDS011;4477;48.736;9.176;2022-10-19T08:16:24;25.77;;;21.73;;
8881;SDS011;4477;48.736;9.176;2022-10-19T08:18:56;24.27;;;20.53;;
8881;SDS011;4477;48.736;9.176;2022-10-19T08:21:24;22.03;;;19.23;;
8881;SDS011;4477;48.736;9.176;2022-10-19T08:23:51;22.67;;;18.87;;
8881;SDS011;4477;48.736;9.176;2022-10-19T08:26:18;22.77;;;19.07;;
8881;SDS011;4477;48.736;9.176;2022-10-19T08:28:45;21.60;;;18.50;;
8881;SDS011;4477;48.736;9.176;2022-10-19T08:31:13;21.90;;;17.37;;
8881;SDS011;4477;48.736;9.176;2022-10-19T08:33:41;21.20;;;17.87;;
8881;SDS011;4477;48.736;9.176;2022-10-19T08:36:10;19.73;;;17.40;;
8881;SDS011;4477;48.736;9.176;2022-10-19T08:38:38;18.37;;;16.37;;
8881;SDS011;4477;48.736;9.176;2022-10-19T08:41:20;19.93;;;16.00;;
8881;SDS011;4477;48.736;9.176;2022-10-19T08:43:55;18.37;;;15.70;;
8881;SDS011;4477;48.736;9.176;2022-10-19T08:46:34;16.67;;;14.63;;
8881;SDS011;4477;48.736;9.176;2022-10-19T08:49:08;17.30;;;15.10;;
8881;SDS011;4477;48.736;9.176;2022-10-19T08:51:42;16.20;;;14.50;;
8881;SDS011;4477;48.736;9.176;2022-10-19T08:54:13;16.90;;;13.63;;
8881;SDS011;4477;48.736;9.176;2022-10-19T08:56:43;19.00;;;15.53;;
8881;SDS011;4477;48.736;9.176;2022-10-19T08:59:18;16.77;;;13.83;;
8881;SDS011;4477;48.736;9.176;2022-10-19T09:01:52;12.13;;;10.93;;
8881;SDS011;4477;48.736;9.176;2022-10-19T09:04:23;14.00;;;11.70;;
8881;SDS011;4477;48.736;9.176;2022-10-19T09:07:02;11.80;;;10.70;;
8881;SDS011;4477;48.736;9.176;2022-10-19T09:09:47;12.47;;;11.00;;
8881;SDS011;4477;48.736;9.176;2022-10-19T09:12:17;10.77;;;9.63;;
8881;SDS011;4477;48.736;9.176;2022-10-19T09:14:50;11.77;;;10.57;;
8881;SDS011;4477;48.736;9.176;2022-10-19T09:17:22;11.83;;;10.60;;
8881;SDS011;4477;48.736;9.176;2022-10-19T09:19:50;12.67;;;10.97;;
8881;SDS011;4477;48.736;9.176;2022-10-19T09:22:19;10.97;;;9.87;;
8881;SDS011;4477;48.736;9.176;2022-10-19T09:24:50;10.67;;;9.57;;
8881;SDS011;4477;48.736;9.176;2022-10-19T09:27:20;10.87;;;9.77;;
8881;SDS011;4477;48.736;9.176;2022-10-19T09:29:49;10.37;;;9.37;;
8881;SDS011;4477;48.736;9.176;2022-10-19T09:32:21;10.67;;;9.67;;
8881;SDS011;4477;48.736;9.176;2022-10-19T09:34:51;10.20;;;9.07;;
8881;SDS011;4477;48.736;9.176;2022-10-19T09:37:23;11.00;;;9.30;;
8881;SDS011;4477;48.736;9.176;2022-10-19T09:39:50;11.77;;;10.57;;
8881;SDS011;4477;48.736;9.176;2022-10-19T09:42:19;10.83;;;9.83;;
8881;SDS011;4477;48.736;9.176;2022-10-19T09:44:48;11.07;;;8.30;;
8881;SDS011;4477;48.736;9.176;2022-10-19T09:47:25;10.80;;;9.47;;
8881;SDS011;4477;48.736;9.176;2022-10-19T09:50:08;10.00;;;8.80;;
8881;SDS011;4477;48.736;9.176;2022-10-19T09:52:42;10.53;;;9.13;;
8881;SDS011;4477;48.736;9.176;2022-10-19T09:55:22;8.00;;;7.30;;
8881;SDS011;4477;48.736;9.176;2022-10-19T09:58:00;7.60;;;6.80;;
8881;SDS011;4477;48.736;9.176;2022-10-19T10:00:33;8.40;;;7.13;;
8881;SDS011;4477;48.736;9.176;2022-10-19T10:03:04;7.97;;;7.17;;
8881;SDS011;4477;48.736;9.176;2022-10-19T10:05:33;7.67;;;6.87;;
8881;SDS011;4477;48.736;9.176;2022-10-19T10:08:03;7.50;;;6.37;;
8881;SDS011;4477;48.736;9.176;2022-10-19T10:10:38;7.00;;;6.30;;
8881;SDS011;4477;48.736;9.176;2022-10-19T10:13:10;6.93;;;6.23;;
8881;SDS011;4477;48.736;9.176;2022-10-19T10:15:42;6.43;;;5.93;;
8881;SDS011;4477;48.736;9.176;2022-10-19T10:18:11;7.00;;;6.40;;
8881;SDS011;4477;48.736;9.176;2022-10-19T10:20:54;6.30;;;5.77;;
8881;SDS011;4477;48.736;9.176;2022-10-19T10:23:25;6.57;;;5.70;;
8881;SDS011;4477;48.736;9.176;2022-10-19T10:25:55;5.93;;;5.33;;
8881;SDS011;4477;48.736;9.176;2022-10-19T10:28:25;6.27;;;5.50;;
8881;SDS011;4477;48.736;9.176;2022-10-19T10:30:53;6.27;;;5.23;;
8881;SDS011;4477;48.736;9.176;2022-10-19T10:33:25;6.17;;;5.57;;
8881;SDS011;4477;48.736;9.176;2022-10-19T10:35:54;6.27;;;5.67;;
8881;SDS011;4477;48.736;9.176;2022-10-19T10:38:29;7.50;;;6.80;;
8881;SDS011;4477;48.736;9.176;2022-10-19T10:40:59;8.83;;;6.40;;
8881;SDS011;4477;48.736;9.176;2022-10-19T10:43:34;8.00;;;7.07;;
8881;SDS011;4477;48.736;9.176;2022-10-19T10:46:04;7.93;;;6.10;;
8881;SDS011;4477;48.736;9.176;2022-10-19T10:48:35;6.23;;;5.67;;
8881;SDS011;4477;48.736;9.176;2022-10-19T10:51:07;5.30;;;4.87;;
8881;SDS011;4477;48.736;9.176;2022-10-19T10:53:46;6.20;;;5.53;;
8881;SDS011;4477;48.736;9.176;2022-10-19T10:56:24;7.23;;;6.53;;
8881;SDS011;4477;48.736;9.176;2022-10-19T10:58:54;5.57;;;4.97;;
8881;SDS011;4477;48.736;9.176;2022-10-19T11:01:25;5.60;;;5.10;;
8881;SDS011;4477;48.736;9.176;2022-10-19T11:03:56;5.80;;;5.30;;
8881;SDS011;4477;48.736;9.176;2022-10-19T11:06:28;6.90;;;6.30;;
8881;SDS011;4477;48.736;9.176;2022-10-19T11:09:02;5.83;;;5.33;;
8881;SDS011;4477;48.736;9.176;2022-10-19T11:11:36;6.43;;;5.83;;
8881;SDS011;4477;48.736;9.176;2022-10-19T11:14:13;6.37;;;5.77;;
8881;SDS011;4477;48.736;9.176;2022-10-19T11:16:49;6.33;;;5.73;;
8881;SDS011;4477;48.736;9.176;2022-10-19T11:19:19;6.80;;;6.07;;
8881;SDS011;4477;48.736;9.176;2022-10-19T11:21:50;10.50;;;6.47;;
8881;SDS011;4477;48.736;9.176;2022-10-19T11:24:26;9.73;;;6.13;;
8881;SDS011;4477;48.736;9.176;2022-10-19T11:27:03;7.23;;;5.90;;
8881;SDS011;4477;48.736;9.176;2022-10-19T11:29:47;9.00;;;7.10;;
8881;SDS011;4477;48.736;9.176;2022-10-19T11:32:25;8.40;;;6.50;;
8881;SDS011;4477;48.736;9.176;2022-10-19T11:35:03;7.40;;;6.50;;
8881;SDS011;4477;48.736;9.176;2022-10-19T11:37:42;7.27;;;6.57;;
8881;SDS011;4477;48.736;9.176;2022-10-19T11:40:16;11.00;;;6.80;;
8881;SDS011;4477;48.736;9.176;2022-10-19T11:42:53;7.97;;;6.90;;
8881;SDS011;4477;48.736;9.176;2022-10-19T11:45:26;7.47;;;6.77;;
8881;SDS011;4477;48.736;9.176;2022-10-19T11:48:09;7.33;;;6.73;;
8881;SDS011;4477;48.736;9.176;2022-10-19T11:50:57;8.00;;;7.20;;
8881;SDS011;4477;48.736;9.176;2022-10-19T11:53:32;10.30;;;7.37;;
8881;SDS011;4477;48.736;9.176;2022-10-19T11:56:09;7.00;;;6.37;;
8881;SDS011;4477;48.736;9.176;2022-10-19T11:58:44;7.30;;;6.57;;
8881;SDS011;4477;48.736;9.176;2022-10-19T12:01:25;8.20;;;7.47;;
8881;SDS011;4477;48.736;9.176;2022-10-19T12:04:14;8.20;;;7.40;;
8881;SDS011;4477;48.736;9.176;2022-10-19T12:06:57;8.53;;;7.73;;
8881;SDS011;4477;48.736;9.176;2022-10-19T12:09:34;8.10;;;7.30;;
8881;SDS011;4477;48.736;9.176;2022-10-19T12:12:24;8.13;;;7.43;;
8881;SDS011;4477;48.736;9.176;2022-10-19T12:14:58;8.77;;;7.20;;
8881;SDS011;4477;48.736;9.176;2022-10-19T12:17:31;8.23;;;7.07;;
8881;SDS011;4477;48.736;9.176;2022-10-19T12:20:02;8.70;;;7.90;;
8881;SDS011;4477;48.736;9.176;2022-10-19T12:22:33;7.43;;;6.73;;
8881;SDS011;4477;48.736;9.176;2022-10-19T12:25:02;8.83;;;7.87;;
8881;SDS011;4477;48.736;9.176;2022-10-19T12:27:33;8.67;;;7.73;;
8881;SDS011;4477;48.736;9.176;2022-10-19T12:30:02;8.53;;;7.57;;
8881;SDS011;4477;48.736;9.176;2022-10-19T12:32:33;8.53;;;7.70;;
8881;SDS011;4477;48.736;9.176;2022-10-19T12:35:11;8.37;;;7.57;;
8881;SDS011;4477;48.736;9.176;2022-10-19T12:37:53;9.17;;;8.10;;
8881;SDS011;4477;48.736;9.176;2022-10-19T12:40:27;8.57;;;7.73;;
8881;SDS011;4477;48.736;9.176;2022-10-19T12:43:06;7.47;;;6.77;;
8881;SDS011;4477;48.736;9.176;2022-10-19T12:45:38;9.10;;;8.20;;
8881;SDS011;4477;48.736;9.176;2022-10-19T12:48:14;8.83;;;7.93;;
8881;SDS011;4477;48.736;9.176;2022-10-19T12:53:32;9.30;;;8.40;;
8881;SDS011;4477;48.736;9.176;2022-10-19T12:56:03;9.17;;;8.23;;
8881;SDS011;4477;48.736;9.176;2022-10-19T12:58:34;8.80;;;8.00;;
8881;SDS011;4477;48.736;9.176;2022-10-19T13:01:05;8.57;;;7.73;;
8881;SDS011;4477;48.736;9.176;2022-10-19T13:03:34;8.90;;;8.10;;
8881;SDS011;4477;48.736;9.176;2022-10-19T13:06:05;8.63;;;7.93;;
8881;SDS011;4477;48.736;9.176;2022-10-19T13:08:38;7.60;;;6.90;;
8881;SDS011;4477;48.736;9.176;2022-10-19T13:11:09;8.40;;;7.70;;
8881;SDS011;4477;48.736;9.176;2022-10-19T13:13:57;8.67;;;7.33;;
8881;SDS011;4477;48.736;9.176;2022-10-19T13:16:32;8.00;;;7.20;;
8881;SDS011;4477;48.736;9.176;2022-10-19T13:19:31;8.50;;;7.57;;
8881;SDS011;4477;48.736;9.176;2022-10-19T13:28:00;9.40;;;8.40;;
8881;SDS011;4477;48.736;9.176;2022-10-19T13:31:03;8.37;;;7.60;;
8881;SDS011;4477;48.736;9.176;2022-10-19T13:33:49;9.33;;;8.20;;
8881;SDS011;4477;48.736;9.176;2022-10-19T13:36:19;8.23;;;7.43;;
8881;SDS011;4477;48.736;9.176;2022-10-19T13:41:43;7.67;;;6.97;;
8881;SDS011;4477;48.736;9.176;2022-10-19T13:44:17;7.60;;;6.90;;
8881;SDS011;4477;48.736;9.176;2022-10-19T13:46:52;8.23;;;7.43;;
8881;SDS011;4477;48.736;9.176;2022-10-19T13:52:56;8.37;;;7.37;;
8881;SDS011;4477;48.736;9.176;2022-10-19T13:59:04;8.27;;;7.57;;
8881;SDS011;4477;48.736;9.176;2022-10-19T14:02:07;8.87;;;7.37;;
8881;SDS011;4477;48.736;9.176;2022-10-19T14:05:14;8.87;;;7.80;;
8881;SDS011;4477;48.736;9.176;2022-10-19T14:07:59;7.63;;;6.93;;
8881;SDS011;4477;48.736;9.176;2022-10-19T14:10:33;7.37;;;6.40;;
8881;SDS011;4477;48.736;9.176;2022-10-19T14:13:02;6.83;;;6.10;;
8881;SDS011;4477;48.736;9.176;2022-10-19T14:15:32;7.53;;;5.57;;
8881;SDS011;4477;48.736;9.176;2022-10-19T14:18:01;6.40;;;5.23;;
8881;SDS011;4477;48.736;9.176;2022-10-19T14:20:29;6.00;;;5.30;;
8881;SDS011;4477;48.736;9.176;2022-10-19T14:22:57;5.93;;;5.10;;
8881;SDS011;4477;48.736;9.176;2022-10-19T14:25:48;5.47;;;4.73;;
8881;SDS011;4477;48.736;9.176;2022-10-19T14:28:16;5.77;;;5.27;;
8881;SDS011;4477;48.736;9.176;2022-10-19T14:30:43;7.43;;;4.90;;
8881;SDS011;4477;48.736;9.176;2022-10-19T14:33:12;6.07;;;4.70;;
8881;SDS011;4477;48.736;9.176;2022-10-19T14:35:41;6.60;;;5.10;;
8881;SDS011;4477;48.736;9.176;2022-10-19T14:38:14;5.30;;;4.80;;
8881;SDS011;4477;48.736;9.176;2022-10-19T14:40:45;6.10;;;5.10;;
8881;SDS011;4477;48.736;9.176;2022-10-19T14:43:17;6.27;;;5.70;;
8881;SDS011;4477;48.736;9.176;2022-10-19T14:48:29;6.37;;;5.77;;
8881;SDS011;4477;48.736;9.176;2022-10-19T14:50:57;6.43;;;4.60;;
8881;SDS011;4477;48.736;9.176;2022-10-19T14:53:28;6.30;;;4.90;;
8881;SDS011;4477;48.736;9.176;2022-10-19T14:56:02;6.47;;;5.47;;
8881;SDS011;4477;48.736;9.176;2022-10-19T14:58:34;6.33;;;5.13;;
8881;SDS011;4477;48.736;9.176;2022-10-19T15:01:05;7.57;;;5.33;;
8881;SDS011;4477;48.736;9.176;2022-10-19T15:03:34;9.70;;;5.90;;
8881;SDS011;4477;48.736;9.176;2022-10-19T15:06:02;7.03;;;6.33;;
8881;SDS011;4477;48.736;9.176;2022-10-19T15:08:34;7.93;;;6.47;;
8881;SDS011;4477;48.736;9.176;2022-10-19T15:11:04;9.63;;;6.10;;
8881;SDS011;4477;48.736;9.176;2022-10-19T15:13:32;5.93;;;5.40;;
8881;SDS011;4477;48.736;9.176;2022-10-19T15:16:05;8.00;;;6.40;;
8881;SDS011;4477;48.736;9.176;2022-10-19T15:18:53;6.67;;;6.07;;
8881;SDS011;4477;48.736;9.176;2022-10-19T15:21:20;6.57;;;5.97;;
8881;SDS011;4477;48.736;9.176;2022-10-19T15:23:47;6.70;;;6.00;;
8881;SDS011;4477;48.736;9.176;2022-10-19T15:26:16;7.20;;;6.50;;
8881;SDS011;4477;48.736;9.176;2022-10-19T15:28:45;8.47;;;7.03;;
8881;SDS011;4477;48.736;9.176;2022-10-19T15:31:15;7.93;;;6.63;;
8881;SDS011;4477;48.736;9.176;2022-10-19T15:33:45;7.13;;;6.53;;
8881;SDS011;4477;48.736;9.176;2022-10-19T15:36:16;8.37;;;7.13;;
8881;SDS011;4477;48.736;9.176;2022-10-19T15:38:45;8.73;;;7.27;;
8881;SDS011;4477;48.736;9.176;2022-10-19T15:41:17;8.77;;;7.97;;
8881;SDS011;4477;48.736;9.176;2022-10-19T15:43:49;8.33;;;7.07;;